Time;durP1;ratioP1;P1;durP2;ratioP2;P2;SDS_P1;SDS_P2;PMS_P1;PMS_P2;Temp;Humidity;BMP_temperature;BMP_pressure;BME280_temperature;BME280_humidity;BME280_pressure;Samples;Min_cycle;Max_cycle;Signal;HPM_P1;HPM_P2
2023/09/12 00:00:52;;;;;;;32.60;20.25;;;;;;;19.95;97.09;101237.50;5040453;28;20096;-66
2023/09/12 00:03:19;;;;;;;30.83;20.85;;;;;;;19.84;97.03;101233.66;5040122;28;20047;-66
2023/09/12 00:05:51;;;;;;;30.98;19.20;;;;;;;19.79;97.16;101231.63;5043898;28;20539;-66
2023/09/12 00:08:16;;;;;;;23.40;18.88;;;;;;;19.77;97.24;101232.91;5040575;28;20021;-66
2023/09/12 00:10:41;;;;;;;24.88;18.90;;;;;;;19.75;97.37;101235.81;5040451;28;20021;-66
2023/09/12 00:13:07;;;;;;;24.48;18.38;;;;;;;19.68;97.47;101242.31;5039196;28;20029;-66
2023/09/12 00:15:32;;;;;;;35.72;13.00;;;;;;;19.62;97.46;101245.88;5039722;28;20485;-66
2023/09/12 00:17:57;;;;;;;17.25;12.10;;;;;;;19.55;97.22;101245.13;5042212;28;20064;-66
2023/09/12 00:20:22;;;;;;;17.10;12.80;;;;;;;19.47;97.50;101246.19;5037120;28;20529;-66
2023/09/12 00:22:48;;;;;;;17.45;14.75;;;;;;;19.43;97.75;101253.88;5039787;28;20028;-66
2023/09/12 00:25:13;;;;;;;26.25;17.83;;;;;;;19.40;98.21;101253.50;5036770;28;20393;-66
2023/09/12 00:27:38;;;;;;;23.60;16.55;;;;;;;19.36;98.06;101252.25;5035488;28;20036;-66
2023/09/12 00:30:04;;;;;;;21.33;15.35;;;;;;;19.39;98.09;101258.06;5037876;28;20108;-66
2023/09/12 00:32:29;;;;;;;26.42;15.57;;;;;;;19.42;98.21;101259.50;5042252;28;20071;-66
2023/09/12 00:34:55;;;;;;;24.42;17.90;;;;;;;19.45;98.20;101262.56;5039337;28;20021;-66
2023/09/12 00:37:20;;;;;;;20.55;17.88;;;;;;;19.49;97.84;101252.19;5037045;28;20041;-66
2023/09/12 00:39:47;;;;;;;26.23;19.08;;;;;;;19.52;97.92;101264.38;5040932;28;20544;-66
2023/09/12 00:42:12;;;;;;;22.92;17.10;;;;;;;19.57;98.21;101253.81;5039853;28;20028;-66
2023/09/12 00:44:37;;;;;;;20.30;16.75;;;;;;;19.53;97.74;101257.94;5042322;28;20033;-66
2023/09/12 00:47:03;;;;;;;32.03;19.67;;;;;;;19.49;97.73;101258.41;5036481;28;20032;-66
2023/09/12 00:49:29;;;;;;;18.08;14.88;;;;;;;19.46;97.38;101256.13;5039737;28;20029;-66
2023/09/12 00:51:56;;;;;;;17.02;14.90;;;;;;;19.49;97.28;101261.09;5037948;28;20029;-66
2023/09/12 00:54:22;;;;;;;21.38;13.77;;;;;;;19.49;97.34;101254.88;5036854;28;20029;-66
2023/09/12 00:56:47;;;;;;;120.35;12.65;;;;;;;19.39;97.05;101260.75;5039562;28;20469;-65
2023/09/12 00:59:16;;;;;;;16.60;12.65;;;;;;;19.42;96.97;101248.72;5038304;28;20033;-66
2023/09/12 01:01:41;;;;;;;17.13;10.88;;;;;;;19.41;96.87;101249.75;5041433;28;20024;-66
2023/09/12 01:04:07;;;;;;;12.55;11.25;;;;;;;19.41;96.94;101245.19;5037370;28;20043;-65
2023/09/12 01:06:33;;;;;;;17.92;12.82;;;;;;;19.42;97.02;101237.94;5039723;28;20025;-66
2023/09/12 01:08:58;;;;;;;15.57;12.68;;;;;;;19.42;97.03;101241.47;5038866;28;20100;-66
2023/09/12 01:11:24;;;;;;;20.15;12.50;;;;;;;19.41;97.15;101242.50;5039057;28;20109;-66
2023/09/12 01:13:49;;;;;;;16.52;13.55;;;;;;;19.32;97.09;101238.41;5041986;28;20112;-66
2023/09/12 01:16:15;;;;;;;13.13;11.02;;;;;;;19.29;96.92;101229.94;5035426;28;20051;-66
2023/09/12 01:18:42;;;;;;;17.95;12.40;;;;;;;19.24;96.65;101232.47;5039364;28;20402;-66
2023/09/12 01:21:36;;;;;;;12.07;8.57;;;;;;;19.18;96.60;101232.31;5035770;28;20022;-65
2023/09/12 01:24:20;;;;;;;43.42;8.60;;;;;;;19.01;96.27;101228.47;5041278;28;20037;-66
2023/09/12 01:27:04;;;;;;;120.90;6.80;;;;;;;18.79;95.73;101236.06;5040381;28;20118;-65
2023/09/12 01:29:31;;;;;;;85.47;7.93;;;;;;;18.62;95.82;101234.91;5038018;28;20669;-66
2023/09/12 01:31:57;;;;;;;180.88;10.85;;;;;;;18.53;96.60;101247.75;5040608;28;20028;-66
2023/09/12 01:34:22;;;;;;;211.38;8.00;;;;;;;18.43;97.35;101241.16;5036008;28;20029;-66
2023/09/12 01:36:47;;;;;;;74.20;6.22;;;;;;;18.39;97.50;101248.81;5043019;28;20540;-66
2023/09/12 01:39:13;;;;;;;63.95;6.47;;;;;;;18.34;97.78;101243.25;5039748;28;20028;-66
2023/09/12 01:41:42;;;;;;;51.05;8.13;;;;;;;18.27;98.37;101239.75;5039914;28;20609;-66
2023/09/12 01:44:10;;;;;;;12.60;8.85;;;;;;;18.24;98.46;101243.69;5035909;28;20021;-66
2023/09/12 01:46:36;;;;;;;10.25;7.70;;;;;;;18.24;98.62;101232.13;5043483;28;20531;-66
2023/09/12 01:49:04;;;;;;;11.13;9.10;;;;;;;18.26;99.07;101232.75;5036268;28;20031;-65
2023/09/12 01:51:30;;;;;;;16.25;10.80;;;;;;;18.25;99.06;101231.91;5037090;28;20020;-66
2023/09/12 01:53:55;;;;;;;8.60;7.70;;;;;;;18.24;99.34;101238.31;5039332;28;20585;-66
2023/09/12 01:56:21;;;;;;;10.05;5.50;;;;;;;18.13;98.80;101235.44;5039037;28;20140;-65
2023/09/12 01:58:47;;;;;;;20.48;7.00;;;;;;;18.05;98.43;101238.38;5037769;28;20074;-66
2023/09/12 02:01:12;;;;;;;62.35;9.05;;;;;;;17.98;98.56;101238.38;5036442;28;20403;-66
2023/09/12 02:03:37;;;;;;;23.52;7.57;;;;;;;17.90;98.82;101233.22;5036676;28;20067;-66
2023/09/12 02:06:03;;;;;;;38.60;8.68;;;;;;;17.84;98.76;101226.00;5040040;28;20109;-65
2023/09/12 02:08:28;;;;;;;29.40;9.20;;;;;;;17.81;99.25;101215.66;5036587;28;20406;-66
2023/09/12 02:10:54;;;;;;;45.15;9.45;;;;;;;17.79;99.51;101217.72;5035063;28;20024;-65
2023/09/12 02:13:19;;;;;;;170.85;10.82;;;;;;;17.78;99.70;101221.44;5036172;28;21846;-65
2023/09/12 02:15:45;;;;;;;21.33;16.45;;;;;;;17.77;100.00;101215.25;5037284;28;20036;-66
2023/09/12 02:18:10;;;;;;;21.65;17.52;;;;;;;17.83;100.00;101218.97;5039420;28;20083;-66
2023/09/12 02:20:38;;;;;;;20.15;17.67;;;;;;;17.87;100.00;101221.03;5040332;28;20035;-65
2023/09/12 02:23:03;;;;;;;24.80;19.77;;;;;;;17.95;100.00;101222.69;5038297;28;20474;-66
2023/09/12 02:25:29;;;;;;;20.80;16.35;;;;;;;17.96;100.00;101224.34;5038888;28;20103;-66
2023/09/12 02:27:54;;;;;;;16.40;13.43;;;;;;;17.96;100.00;101229.72;5034958;28;20024;-65
2023/09/12 02:30:19;;;;;;;14.07;11.90;;;;;;;17.88;100.00;101227.22;5037981;28;20118;-65
2023/09/12 02:32:44;;;;;;;19.83;11.23;;;;;;;17.83;100.00;101221.66;5039055;28;20043;-66
2023/09/12 02:35:10;;;;;;;21.30;10.50;;;;;;;17.80;100.00;101238.19;5037632;28;20052;-65
2023/09/12 02:37:35;;;;;;;12.88;11.57;;;;;;;17.81;100.00;101235.28;5038213;28;20036;-65
2023/09/12 02:40:01;;;;;;;12.05;10.50;;;;;;;17.77;100.00;101239.44;5037013;28;20592;-66
2023/09/12 02:42:26;;;;;;;14.70;12.15;;;;;;;17.76;100.00;101245.00;5037204;28;20623;-66
2023/09/12 02:44:52;;;;;;;13.38;11.63;;;;;;;17.74;100.00;101233.66;5039841;28;20021;-66
2023/09/12 02:47:17;;;;;;;15.55;13.80;;;;;;;17.72;100.00;101231.19;5037970;28;20473;-65
2023/09/12 02:49:42;;;;;;;15.52;12.55;;;;;;;17.77;100.00;101230.53;5038958;28;20033;-65
2023/09/12 02:52:08;;;;;;;15.27;11.75;;;;;;;17.79;100.00;101231.16;5036102;28;20033;-66
2023/09/12 02:54:33;;;;;;;14.68;11.55;;;;;;;17.86;100.00;101237.34;5037995;28;20474;-66
2023/09/12 02:56:58;;;;;;;16.20;12.15;;;;;;;17.87;100.00;101222.88;5040799;28;20478;-66
2023/09/12 02:59:24;;;;;;;15.57;13.30;;;;;;;17.89;100.00;101218.13;5032665;28;20021;-65
2023/09/12 03:01:49;;;;;;;14.32;10.52;;;;;;;17.86;100.00;101223.91;5040361;28;20464;-66
2023/09/12 03:04:14;;;;;;;11.75;9.85;;;;;;;17.93;100.00;101224.75;5039543;28;20029;-66
2023/09/12 03:06:39;;;;;;;11.75;8.88;;;;;;;17.93;100.00;101224.75;5042987;28;20029;-66
2023/09/12 03:09:06;;;;;;;9.80;7.93;;;;;;;17.97;100.00;101219.78;5036687;28;20060;-66
2023/09/12 03:11:31;;;;;;;6.68;6.07;;;;;;;17.95;100.00;101223.50;5041189;28;20021;-65
2023/09/12 03:13:56;;;;;;;9.23;7.97;;;;;;;18.03;100.00;101230.50;5039182;28;20094;-66
2023/09/12 03:16:23;;;;;;;6.70;5.00;;;;;;;17.99;99.98;101229.28;5038923;28;20032;-66
2023/09/12 03:18:49;;;;;;;6.93;6.22;;;;;;;17.99;99.51;101237.34;5041207;28;20394;-66
2023/09/12 03:21:14;;;;;;;11.93;7.82;;;;;;;17.99;99.50;101237.34;5042740;28;20034;-66
2023/09/12 03:23:39;;;;;;;9.90;8.50;;;;;;;17.97;99.43;101233.22;5041399;28;20040;-66
2023/09/12 03:26:05;;;;;;;10.90;8.45;;;;;;;18.01;99.61;101232.59;5044120;28;20025;-65
2023/09/12 03:28:31;;;;;;;12.38;10.30;;;;;;;18.00;99.57;101222.03;5043085;28;20519;-65
2023/09/12 03:31:07;;;;;;;12.95;10.20;;;;;;;17.89;99.80;101218.94;5041833;28;20032;-65
2023/09/12 03:33:33;;;;;;;11.95;9.80;;;;;;;17.86;99.55;101219.38;5043824;28;20029;-66
2023/09/12 03:35:58;;;;;;;8.38;7.40;;;;;;;17.79;99.17;101215.88;5042154;28;20033;-65
2023/09/12 03:38:23;;;;;;;10.60;8.25;;;;;;;17.74;99.21;101220.22;5039659;28;20106;-65
2023/09/12 03:40:49;;;;;;;10.30;7.47;;;;;;;17.60;98.68;101225.56;5041122;28;20112;-65
2023/09/12 03:43:14;;;;;;;39.35;6.78;;;;;;;17.46;98.64;101221.22;5039333;28;20454;-65
2023/09/12 03:45:39;;;;;;;19.90;5.72;;;;;;;17.37;98.39;101219.78;5040349;28;20556;-65
2023/09/12 03:48:05;;;;;;;46.58;8.30;;;;;;;17.35;98.78;101216.50;5038834;28;20040;-65
2023/09/12 03:50:30;;;;;;;57.60;7.47;;;;;;;17.32;99.23;101216.88;5043176;28;20051;-65
2023/09/12 03:52:56;;;;;;;85.75;7.40;;;;;;;17.25;99.75;101205.31;5040346;28;20036;-66
2023/09/12 03:55:21;;;;;;;70.43;7.53;;;;;;;17.21;99.79;101206.75;5038889;28;21576;-65
2023/09/12 03:57:46;;;;;;;83.75;8.27;;;;;;;17.18;100.00;101207.16;5043347;28;20040;-65
2023/09/12 04:00:13;;;;;;;110.05;9.48;;;;;;;17.13;100.00;101210.47;5036901;28;20056;-65
2023/09/12 04:02:38;;;;;;;72.47;6.93;;;;;;;17.04;100.00;101204.47;5040987;28;20024;-66
2023/09/12 04:05:04;;;;;;;45.00;9.82;;;;;;;17.07;100.00;101205.94;5037508;28;20048;-65
2023/09/12 04:07:29;;;;;;;22.77;12.43;;;;;;;17.11;100.00;101209.84;5041232;28;20041;-65
2023/09/12 04:09:54;;;;;;;25.20;11.55;;;;;;;17.09;100.00;101211.09;5040272;28;20027;-65
2023/09/12 04:12:19;;;;;;;22.55;10.93;;;;;;;17.09;100.00;101206.56;5034776;28;20030;-66
2023/09/12 04:14:45;;;;;;;17.58;13.35;;;;;;;17.11;100.00;101209.03;5036131;28;20056;-65
2023/09/12 04:17:10;;;;;;;21.92;15.57;;;;;;;17.12;100.00;101208.81;5044550;28;20070;-66
2023/09/12 04:19:36;;;;;;;18.20;14.38;;;;;;;17.13;100.00;101206.97;5035546;28;20593;-66
2023/09/12 04:22:01;;;;;;;19.42;14.82;;;;;;;17.10;100.00;101207.38;5037449;28;20088;-65
2023/09/12 04:24:26;;;;;;;15.07;12.77;;;;;;;17.09;100.00;101203.88;5031114;28;20029;-66
2023/09/12 04:26:51;;;;;;;18.23;14.73;;;;;;;17.14;100.00;101198.72;5032154;28;20025;-65
2023/09/12 04:29:17;;;;;;;17.83;15.32;;;;;;;17.17;100.00;101205.53;5037436;28;20014;-65
2023/09/12 04:31:42;;;;;;;22.30;15.65;;;;;;;17.17;100.00;101194.78;5033058;28;20033;-66
2023/09/12 04:34:07;;;;;;;22.00;16.38;;;;;;;17.18;100.00;101210.69;5030568;28;20021;-65
2023/09/12 04:36:33;;;;;;;20.45;17.33;;;;;;;17.21;100.00;101207.59;5039412;28;20025;-65
2023/09/12 04:38:58;;;;;;;19.67;16.40;;;;;;;17.23;100.00;101215.44;5036195;28;20026;-65
2023/09/12 04:41:23;;;;;;;18.17;15.32;;;;;;;17.21;100.00;101212.94;5037458;28;20028;-65
2023/09/12 04:43:48;;;;;;;19.02;15.05;;;;;;;17.17;100.00;101211.72;5030908;28;20529;-65
2023/09/12 04:46:14;;;;;;;17.70;14.10;;;;;;;17.16;100.00;101209.25;5040281;28;20017;-66
2023/09/12 04:48:40;;;;;;;21.15;16.50;;;;;;;17.13;100.00;101213.16;5040850;28;20028;-65
2023/09/12 04:51:05;;;;;;;26.00;18.20;;;;;;;17.15;100.00;101208.41;5030177;28;20028;-65
2023/09/12 04:53:34;;;;;;;25.80;19.40;;;;;;;17.19;100.00;101211.50;5035604;28;20585;-66
2023/09/12 04:56:03;;;;;;;27.30;19.05;;;;;;;17.24;100.00;101209.03;5036782;28;20056;-65
2023/09/12 04:58:28;;;;;;;28.67;19.80;;;;;;;17.33;100.00;101210.47;5029732;28;20067;-66
2023/09/12 05:00:56;;;;;;;29.50;19.98;;;;;;;17.36;100.00;101209.25;5036026;28;20032;-66
2023/09/12 05:03:22;;;;;;;28.52;19.73;;;;;;;17.38;100.00;101220.63;5039568;28;20585;-64
2023/09/12 05:05:52;;;;;;;30.27;20.42;;;;;;;17.37;100.00;101225.16;5038451;28;20021;-65
2023/09/12 05:08:18;;;;;;;26.00;19.50;;;;;;;17.41;100.00;101218.34;5028753;28;20030;-65
2023/09/12 05:10:46;;;;;;;28.10;19.10;;;;;;;17.42;100.00;101219.16;5030573;28;20172;-65
2023/09/12 05:13:12;;;;;;;28.42;18.88;;;;;;;17.41;100.00;101222.88;5037152;28;20116;-65
2023/09/12 05:15:39;;;;;;;29.48;20.75;;;;;;;17.44;100.00;101228.66;5041659;28;20051;-66
2023/09/12 05:18:07;;;;;;;24.52;18.63;;;;;;;17.36;100.00;101231.56;5044184;28;20121;-65
2023/09/12 05:20:33;;;;;;;25.83;18.83;;;;;;;17.37;100.00;101211.75;5041856;28;21486;-65
2023/09/12 05:22:58;;;;;;;29.85;19.13;;;;;;;17.38;100.00;101213.41;5037902;28;20071;-66
2023/09/12 05:25:23;;;;;;;27.90;20.13;;;;;;;17.40;100.00;101213.19;5040423;28;20029;-66
2023/09/12 05:27:49;;;;;;;26.55;19.45;;;;;;;17.42;100.00;101221.84;5035270;28;20395;-66
2023/09/12 05:30:14;;;;;;;27.15;18.77;;;;;;;17.42;100.00;101225.38;5036565;28;20624;-66
2023/09/12 05:32:41;;;;;;;29.25;20.45;;;;;;;17.45;100.00;101224.13;5039703;28;20817;-66
2023/09/12 05:35:07;;;;;;;29.80;19.80;;;;;;;17.51;100.00;101217.94;5040958;28;20021;-66
2023/09/12 05:37:32;;;;;;;26.58;18.38;;;;;;;17.56;100.00;101215.44;5036271;28;20482;-65
2023/09/12 05:39:57;;;;;;;28.80;19.92;;;;;;;17.60;100.00;101217.50;5037134;28;20108;-66
2023/09/12 05:42:23;;;;;;;27.17;19.02;;;;;;;17.66;100.00;101221.25;5038841;28;21330;-66
2023/09/12 05:44:49;;;;;;;31.42;20.45;;;;;;;17.71;100.00;101215.28;5036384;28;20031;-66
2023/09/12 05:47:15;;;;;;;28.92;19.80;;;;;;;17.69;100.00;101218.16;5031820;28;20037;-66
2023/09/12 05:49:40;;;;;;;27.00;19.13;;;;;;;17.80;100.00;101211.31;5029372;28;20457;-66
2023/09/12 05:52:05;;;;;;;24.63;18.27;;;;;;;17.83;100.00;101208.22;5040467;28;20018;-66
2023/09/12 05:54:31;;;;;;;26.55;18.73;;;;;;;17.85;100.00;101208.84;5039006;28;20029;-66
2023/09/12 05:56:56;;;;;;;23.25;17.33;;;;;;;17.88;100.00;101216.47;5039588;28;20025;-66
2023/09/12 05:59:21;;;;;;;23.83;17.33;;;;;;;17.91;100.00;101221.41;5042541;28;20025;-66
2023/09/12 06:01:46;;;;;;;27.45;17.85;;;;;;;17.94;100.00;101205.72;5042402;28;20434;-65
2023/09/12 06:04:12;;;;;;;23.60;18.05;;;;;;;17.98;100.00;101216.06;5038842;28;20048;-65
2023/09/12 06:06:38;;;;;;;21.52;16.60;;;;;;;18.00;100.00;101211.28;5037980;28;20088;-66
2023/09/12 06:09:04;;;;;;;21.83;17.63;;;;;;;18.05;100.00;101222.25;5047265;28;20078;-65
2023/09/12 06:11:29;;;;;;;24.20;17.92;;;;;;;18.05;100.00;101231.13;5035744;28;20399;-65
2023/09/12 06:13:54;;;;;;;25.73;17.35;;;;;;;18.10;100.00;101236.69;5030523;28;20025;-65
2023/09/12 06:16:20;;;;;;;23.77;18.00;;;;;;;18.07;100.00;101237.13;5036248;28;20078;-65
2023/09/12 06:18:45;;;;;;;23.80;18.42;;;;;;;18.03;100.00;101238.56;5028455;28;20475;-65
2023/09/12 06:21:10;;;;;;;28.73;18.40;;;;;;;18.08;100.00;101238.75;5030682;28;20026;-65
2023/09/12 06:23:36;;;;;;;24.42;18.42;;;;;;;18.08;100.00;101246.00;5035569;28;20023;-65
2023/09/12 06:26:01;;;;;;;26.10;19.45;;;;;;;18.12;100.00;101250.75;5048320;28;20033;-65
2023/09/12 06:28:30;;;;;;;27.15;18.60;;;;;;;18.14;100.00;101253.22;5047313;28;20051;-65
2023/09/12 06:30:59;;;;;;;;;;;;;;;18.26;100.00;101249.69;5036177;28;20017;-65
2023/09/12 06:33:28;;;;;;;30.70;24.38;;;;;;;18.21;100.00;101246.81;5028392;28;20378;-66
2023/09/12 06:35:54;;;;;;;27.15;19.27;;;;;;;18.23;100.00;101243.91;5030909;28;20075;-66
2023/09/12 06:38:20;;;;;;;24.77;18.63;;;;;;;18.24;100.00;101249.09;5033949;28;20029;-66
2023/09/12 06:40:48;;;;;;;27.40;19.83;;;;;;;18.28;100.00;101246.78;5032590;28;20021;-66
2023/09/12 06:43:14;;;;;;;27.10;19.83;;;;;;;18.25;100.00;101248.03;5032929;28;20055;-66
2023/09/12 06:45:42;;;;;;;32.35;19.35;;;;;;;18.23;100.00;101250.13;5032088;28;20113;-66
2023/09/12 06:48:07;;;;;;;25.55;18.40;;;;;;;18.26;100.00;101248.88;5042455;28;20033;-65
2023/09/12 06:50:33;;;;;;;27.70;18.63;;;;;;;18.24;100.00;101249.09;5035058;28;20036;-66
2023/09/12 06:52:58;;;;;;;21.80;17.42;;;;;;;18.18;100.00;101247.22;5032893;28;20022;-65
2023/09/12 06:55:24;;;;;;;22.73;17.75;;;;;;;18.22;100.00;101245.78;5032351;28;20037;-66
2023/09/12 06:57:50;;;;;;;27.58;18.70;;;;;;;18.21;100.00;101252.19;5032361;28;20029;-65
2023/09/12 07:00:16;;;;;;;30.17;19.98;;;;;;;18.25;100.00;101245.34;5032140;28;20136;-66
2023/09/12 07:02:41;;;;;;;28.83;19.65;;;;;;;18.28;100.00;101244.09;5049980;28;20032;-66
2023/09/12 07:05:07;;;;;;;27.38;20.08;;;;;;;18.25;100.00;101245.34;5045815;28;20021;-65
2023/09/12 07:07:33;;;;;;;28.48;20.55;;;;;;;18.28;100.00;101260.25;5041850;28;20027;-65
2023/09/12 07:09:59;;;;;;;33.10;22.42;;;;;;;18.19;100.00;101256.94;5044762;28;20029;-65
2023/09/12 07:12:25;;;;;;;32.08;22.33;;;;;;;18.17;100.00;101258.19;5032450;28;20474;-65
2023/09/12 07:14:51;;;;;;;32.67;22.00;;;;;;;18.19;100.00;101253.41;5031540;28;20026;-65
2023/09/12 07:17:17;;;;;;;37.42;24.38;;;;;;;18.20;100.00;101263.13;5042969;28;20027;-66
2023/09/12 07:19:42;;;;;;;37.40;24.70;;;;;;;18.24;100.00;101269.75;5041471;28;20566;-65
2023/09/12 07:22:08;;;;;;;36.67;24.33;;;;;;;18.29;100.00;101264.56;5031527;28;20108;-66
2023/09/12 07:24:33;;;;;;;38.92;24.25;;;;;;;18.29;100.00;101271.81;5042866;28;20035;-65
2023/09/12 07:26:58;;;;;;;36.42;24.17;;;;;;;18.34;100.00;101264.75;5031505;28;20028;-66
2023/09/12 07:29:23;;;;;;;36.22;25.02;;;;;;;18.40;100.00;101265.78;5031222;28;20114;-65
2023/09/12 07:31:53;;;;;;;40.85;24.70;;;;;;;18.41;100.00;101265.56;5046818;28;20017;-65
2023/09/12 07:34:18;;;;;;;45.05;25.77;;;;;;;18.46;100.00;101257.69;5034981;28;20021;-65
2023/09/12 07:36:43;;;;;;;39.42;24.73;;;;;;;18.48;100.00;101255.59;5050479;28;20068;-66
2023/09/12 07:39:09;;;;;;;40.03;25.45;;;;;;;18.63;100.00;101258.06;5033931;28;20026;-66
2023/09/12 07:41:34;;;;;;;41.65;26.23;;;;;;;18.68;100.00;101254.75;5040821;28;20025;-65
2023/09/12 07:44:01;;;;;;;44.58;27.38;;;;;;;18.70;100.00;101252.66;5037341;28;20029;-66
2023/09/12 07:46:26;;;;;;;46.13;25.90;;;;;;;18.74;100.00;101268.16;5051323;28;20024;-66
2023/09/12 07:48:52;;;;;;;46.88;27.35;;;;;;;18.82;100.00;101273.31;5048823;28;20020;-66
2023/09/12 07:51:18;;;;;;;43.88;26.10;;;;;;;18.85;100.00;101267.50;5041764;28;20022;-66
2023/09/12 07:53:43;;;;;;;44.20;26.90;;;;;;;18.87;100.00;101268.09;5031353;28;20026;-65
2023/09/12 07:56:12;;;;;;;45.85;27.00;;;;;;;18.88;100.00;101272.44;5032027;28;20028;-65
2023/09/12 07:58:38;;;;;;;41.63;24.95;;;;;;;18.92;100.00;101269.31;5043414;28;20029;-65
2023/09/12 08:01:09;;;;;;;38.33;25.17;;;;;;;18.97;100.00;101272.19;5031443;28;20053;-66
2023/09/12 08:03:36;;;;;;;41.88;26.30;;;;;;;19.06;100.00;101270.88;5030976;28;20021;-66
2023/09/12 08:06:01;;;;;;;44.78;27.15;;;;;;;19.13;100.00;101267.13;5043616;28;20044;-65
2023/09/12 08:08:27;;;;;;;41.35;26.70;;;;;;;19.21;100.00;101262.53;5045339;28;20065;-65
2023/09/12 08:10:52;;;;;;;43.22;26.90;;;;;;;19.21;100.00;101255.28;5041085;28;20017;-65
2023/09/12 08:13:17;;;;;;;44.13;28.08;;;;;;;19.28;100.00;101266.81;5030362;28;20029;-65
2023/09/12 08:15:42;;;;;;;45.08;28.77;;;;;;;19.33;100.00;101277.75;5040008;28;20513;-66
2023/09/12 08:18:08;;;;;;;45.42;29.15;;;;;;;19.39;100.00;101286.88;5036556;28;20021;-66
2023/09/12 08:20:33;;;;;;;49.97;32.25;;;;;;;19.51;100.00;101285.09;5040347;28;20025;-65
2023/09/12 08:22:58;;;;;;;47.72;30.50;;;;;;;19.54;100.00;101286.56;5030548;28;20025;-66
2023/09/12 08:25:24;;;;;;;47.95;30.58;;;;;;;19.57;100.00;101289.66;5031355;28;20025;-65
2023/09/12 08:27:50;;;;;;;50.42;30.77;;;;;;;19.63;100.00;101291.47;5029815;28;20105;-65
2023/09/12 08:30:16;;;;;;;48.63;31.27;;;;;;;19.67;100.00;101299.97;5043448;28;20018;-66
2023/09/12 08:32:43;;;;;;;46.65;31.17;;;;;;;19.78;100.00;101304.63;5043050;28;20090;-66
2023/09/12 08:35:10;;;;;;;47.05;30.27;;;;;;;19.78;100.00;101300.06;5031117;28;20064;-66
2023/09/12 08:37:35;;;;;;;44.42;27.98;;;;;;;19.82;100.00;101303.13;5031628;28;20025;-65
2023/09/12 08:40:01;;;;;;;48.30;30.73;;;;;;;19.94;100.00;101303.22;5030773;28;20083;-66
2023/09/12 08:42:30;;;;;;;48.42;30.75;;;;;;;19.96;100.00;101311.94;5045705;28;20075;-66
2023/09/12 08:44:55;;;;;;;43.55;28.50;;;;;;;20.01;100.00;101310.25;5031191;28;20025;-65
2023/09/12 08:47:22;;;;;;;47.70;30.25;;;;;;;20.07;100.00;101320.13;5029726;28;20029;-65
2023/09/12 08:49:48;;;;;;;51.00;30.13;;;;;;;20.19;100.00;101308.59;5033834;28;20029;-66
2023/09/12 08:52:13;;;;;;;52.47;32.15;;;;;;;20.22;99.73;101311.69;5039737;28;20035;-66
2023/09/12 08:54:39;;;;;;;48.05;29.98;;;;;;;20.26;98.56;101320.19;5039486;28;20108;-66
2023/09/12 08:57:06;;;;;;;50.47;31.90;;;;;;;20.32;98.70;101311.19;5045134;28;20044;-66
2023/09/12 08:59:33;;;;;;;45.30;29.25;;;;;;;20.37;98.56;101324.81;5045639;28;20390;-66
2023/09/12 09:02:00;;;;;;;50.55;30.73;;;;;;;20.40;97.70;101325.22;5044062;28;20060;-66
2023/09/12 09:04:29;;;;;;;49.90;30.02;;;;;;;20.42;96.72;101327.69;5043186;28;20025;-66
2023/09/12 09:06:55;;;;;;;;;;;;;;;20.51;96.44;101323.66;5042503;28;20025;-66
2023/09/12 09:09:21;;;;;;;48.65;30.65;;;;;;;20.47;95.98;101333.25;5044883;28;19912;-66
2023/09/12 09:11:47;;;;;;;51.10;31.40;;;;;;;20.53;95.81;101318.88;5047520;28;20100;-66
2023/09/12 09:14:12;;;;;;;48.28;30.38;;;;;;;20.54;95.07;101320.53;5045313;28;20108;-66
2023/09/12 09:16:38;;;;;;;51.00;32.20;;;;;;;20.65;94.44;101325.16;5035501;28;20551;-66
2023/09/12 09:19:10;;;;;;;49.28;30.25;;;;;;;20.69;94.03;101315.56;5042123;28;20063;-65
2023/09/12 09:21:37;;;;;;;51.05;30.73;;;;;;;20.78;93.49;101323.34;5048179;28;20025;-66
2023/09/12 09:24:03;;;;;;;47.92;30.08;;;;;;;20.82;92.95;101330.81;5042757;28;20033;-65
2023/09/12 09:26:50;;;;;;;49.53;29.17;;;;;;;20.87;92.82;101336.34;5045483;28;20082;-65
2023/09/12 09:29:18;;;;;;;49.13;29.13;;;;;;;20.85;92.22;101321.41;5037642;28;20017;-65
2023/09/12 09:31:45;;;;;;;47.42;28.73;;;;;;;20.98;92.32;101319.38;5045356;28;20021;-65
2023/09/12 09:34:13;;;;;;;44.30;26.88;;;;;;;21.16;91.91;101306.88;5047224;28;20057;-65
2023/09/12 09:36:42;;;;;;;42.30;27.23;;;;;;;21.32;91.51;101306.25;5040014;28;20025;-65
2023/09/12 09:39:08;;;;;;;41.78;25.13;;;;;;;21.49;90.96;101304.56;5057673;28;20279;-65
2023/09/12 09:41:34;;;;;;;43.60;24.85;;;;;;;21.66;90.65;101301.97;5048642;28;20032;-65
2023/09/12 09:43:59;;;;;;;40.47;24.65;;;;;;;21.75;89.57;101289.78;5041903;28;20033;-66
2023/09/12 09:46:25;;;;;;;37.03;23.55;;;;;;;21.87;88.71;101296.03;5040035;28;20104;-65
2023/09/12 09:48:51;;;;;;;37.72;23.10;;;;;;;22.05;87.94;101294.31;5037647;28;20025;-65
2023/09/12 09:51:17;;;;;;;34.28;21.23;;;;;;;22.05;86.51;101308.66;5042945;28;20020;-65
2023/09/12 09:53:43;;;;;;;35.22;20.38;;;;;;;22.21;85.95;101296.28;5045041;28;20071;-65
2023/09/12 09:56:13;;;;;;;30.63;20.40;;;;;;;22.31;84.72;101304.66;5042134;28;20071;-65
2023/09/12 09:58:52;;;;;;;32.42;20.23;;;;;;;22.32;83.23;101295.47;5038381;28;20017;-65
2023/09/12 10:01:20;;;;;;;26.50;16.67;;;;;;;22.61;82.44;101292.84;5039673;28;20385;-66
2023/09/12 10:03:50;;;;;;;24.58;15.48;;;;;;;22.65;80.54;101294.00;5041283;28;20108;-67
2023/09/12 10:06:17;;;;;;;24.48;15.73;;;;;;;22.96;79.96;101299.00;5040038;28;20428;-66
2023/09/12 10:08:44;;;;;;;23.95;15.27;;;;;;;23.03;77.95;101301.53;5044781;28;20029;-67
2023/09/12 10:11:10;;;;;;;26.70;16.02;;;;;;;23.17;77.34;101301.03;5047694;28;20063;-67
2023/09/12 10:13:41;;;;;;;26.30;16.88;;;;;;;23.38;76.68;101302.19;5044168;28;20045;-66
2023/09/12 10:16:07;;;;;;;26.35;15.85;;;;;;;23.58;75.55;101300.94;5036642;28;20036;-67
2023/09/12 10:18:38;;;;;;;25.67;15.25;;;;;;;23.58;73.34;101303.66;5041424;28;20024;-67
2023/09/12 10:21:11;;;;;;;24.77;16.00;;;;;;;23.62;73.38;101296.66;5036487;28;20033;-67
2023/09/12 10:23:44;;;;;;;28.73;16.92;;;;;;;23.82;73.25;101305.16;5043627;28;20028;-67
2023/09/12 10:26:12;;;;;;;26.70;15.38;;;;;;;23.71;71.69;101300.63;5040352;28;20184;-67
2023/09/12 10:28:40;;;;;;;22.65;14.60;;;;;;;23.89;72.00;101297.66;5044961;28;20512;-67
2023/09/12 10:31:08;;;;;;;18.67;12.55;;;;;;;24.06;69.93;101294.94;5039204;28;20016;-67
2023/09/12 10:33:33;;;;;;;19.77;12.30;;;;;;;24.02;68.58;101288.38;5041886;28;20021;-67
2023/09/12 10:35:59;;;;;;;22.73;13.82;;;;;;;24.06;68.82;101290.34;5038245;28;20037;-66
2023/09/12 10:38:28;;;;;;;22.52;13.10;;;;;;;24.23;68.47;101284.03;5034360;28;20487;-67
2023/09/12 10:40:54;;;;;;;;;;;;;;;24.34;68.94;101288.59;5041957;28;20064;-67
2023/09/12 10:43:21;;;;;;;22.10;11.32;;;;;;;24.28;67.98;101290.38;5038132;28;19920;-67
2023/09/12 10:45:48;;;;;;;17.20;11.38;;;;;;;24.51;67.40;101285.81;5039069;28;20125;-66
2023/09/12 10:48:13;;;;;;;20.25;13.30;;;;;;;24.70;66.57;101284.41;5041979;28;20650;-66
2023/09/12 10:50:39;;;;;;;19.77;12.00;;;;;;;24.73;65.58;101286.63;5035731;28;20104;-67
2023/09/12 10:53:14;;;;;;;16.08;10.38;;;;;;;24.67;64.03;101290.34;5045342;28;20111;-66
2023/09/12 10:55:39;;;;;;;18.83;11.50;;;;;;;25.03;63.91;101278.03;5041021;28;20025;-67
2023/09/12 10:58:07;;;;;;;19.67;12.45;;;;;;;25.02;64.15;101277.19;5035201;28;20650;-67
2023/09/12 11:00:33;;;;;;;20.05;12.73;;;;;;;25.02;64.08;101282.63;5030112;28;20026;-66
2023/09/12 11:03:02;;;;;;;21.15;13.73;;;;;;;25.15;63.64;101291.44;5033828;28;20432;-60